Other Surface Observations
Issued by NWS Missoula, MT

Home | Current Version | Previous Version | Text Only | Print | Product List | Glossary On
Versions: 1 2 3 4 5 6 7 8 9 10 11 12 13 14 15 16 17 18 19 20 21 22 23 24 25 26 27 28 29 30 31 32 33 34 35 36 37 38 39 40 41 42 43 44 45 46 47 48 49 50
000
SXUS55 KMSO 271313
OSOMSO
MONTANA AWOS SUMMARY
NATIONAL WEATHER SERVICE MISSOULA MT
713 AM MDT WED MAY 27 2015

Montana AWOS Reports

TWIN BRIDGES|K7S1 271255Z AUTO 00000KT 40SM 09/07 A3004 RMK AO1 T00940067
EKALAKA     |K97M 271255Z AUTO 12004KT 40SM 13/09 A2995 RMK AO1 T01330094
SCOBEY      |K9S2 271255Z AUTO 00000KT 25SM 10/06 A2991 RMK AO1 T01000056




USA.gov is the U.S. government's official web portal to all federal, state and local government web resources and services.